sensor_id;sensor_type;location;lat;lon;timestamp;temperature;humidity
41447;DHT22;27185;52.040;4.490;2022-08-02T00:02:07;20.00;78.20
41447;DHT22;27185;52.040;4.490;2022-08-02T00:04:52;20.00;78.30
41447;DHT22;27185;52.040;4.490;2022-08-02T00:07:38;20.00;78.40
41447;DHT22;27185;52.040;4.490;2022-08-02T00:10:24;20.00;78.40
41447;DHT22;27185;52.040;4.490;2022-08-02T00:13:10;20.00;78.50
41447;DHT22;27185;52.040;4.490;2022-08-02T00:15:55;20.00;78.40
41447;DHT22;27185;52.040;4.490;2022-08-02T00:18:41;19.90;78.50
41447;DHT22;27185;52.040;4.490;2022-08-02T00:21:27;19.90;78.50
41447;DHT22;27185;52.040;4.490;2022-08-02T00:24:13;19.80;78.50
41447;DHT22;27185;52.040;4.490;2022-08-02T00:26:58;19.80;78.70
41447;DHT22;27185;52.040;4.490;2022-08-02T00:29:44;19.80;78.70
41447;DHT22;27185;52.040;4.490;2022-08-02T00:32:29;19.70;78.70
41447;DHT22;27185;52.040;4.490;2022-08-02T00:35:15;19.70;78.90
41447;DHT22;27185;52.040;4.490;2022-08-02T00:38:02;19.70;79.00
41447;DHT22;27185;52.040;4.490;2022-08-02T00:40:51;19.70;79.00
41447;DHT22;27185;52.040;4.490;2022-08-02T00:43:36;19.70;79.10
41447;DHT22;27185;52.040;4.490;2022-08-02T00:46:22;19.60;79.00
41447;DHT22;27185;52.040;4.490;2022-08-02T00:49:08;19.60;78.80
41447;DHT22;27185;52.040;4.490;2022-08-02T00:51:53;19.60;78.70
41447;DHT22;27185;52.040;4.490;2022-08-02T00:54:39;19.50;78.70
41447;DHT22;27185;52.040;4.490;2022-08-02T00:57:24;19.50;78.70
41447;DHT22;27185;52.040;4.490;2022-08-02T01:00:10;19.50;78.70
41447;DHT22;27185;52.040;4.490;2022-08-02T01:02:56;19.50;78.70
41447;DHT22;27185;52.040;4.490;2022-08-02T01:05:42;19.40;78.60
41447;DHT22;27185;52.040;4.490;2022-08-02T01:08:28;19.40;78.70
41447;DHT22;27185;52.040;4.490;2022-08-02T01:11:14;19.30;78.80
41447;DHT22;27185;52.040;4.490;2022-08-02T01:14:08;19.30;78.90
41447;DHT22;27185;52.040;4.490;2022-08-02T01:17:07;19.30;79.40
41447;DHT22;27185;52.040;4.490;2022-08-02T01:23:34;19.30;79.70
41447;DHT22;27185;52.040;4.490;2022-08-02T01:29:33;19.20;79.50
41447;DHT22;27185;52.040;4.490;2022-08-02T01:32:24;19.20;79.80
41447;DHT22;27185;52.040;4.490;2022-08-02T01:35:21;19.10;79.60
41447;DHT22;27185;52.040;4.490;2022-08-02T01:38:15;19.10;80.00
41447;DHT22;27185;52.040;4.490;2022-08-02T01:41:03;19.10;79.90
41447;DHT22;27185;52.040;4.490;2022-08-02T01:43:53;19.00;79.60
41447;DHT22;27185;52.040;4.490;2022-08-02T01:46:41;19.00;79.80
41447;DHT22;27185;52.040;4.490;2022-08-02T01:49:29;19.00;79.90
41447;DHT22;27185;52.040;4.490;2022-08-02T01:52:16;18.90;80.00
41447;DHT22;27185;52.040;4.490;2022-08-02T01:55:10;18.90;80.10
41447;DHT22;27185;52.040;4.490;2022-08-02T01:57:58;18.90;80.20
41447;DHT22;27185;52.040;4.490;2022-08-02T02:00:45;18.90;80.40
41447;DHT22;27185;52.040;4.490;2022-08-02T02:03:31;18.90;80.60
41447;DHT22;27185;52.040;4.490;2022-08-02T02:06:18;18.80;80.10
41447;DHT22;27185;52.040;4.490;2022-08-02T02:09:05;18.80;80.30
41447;DHT22;27185;52.040;4.490;2022-08-02T02:11:51;18.70;80.50
41447;DHT22;27185;52.040;4.490;2022-08-02T02:14:38;18.70;80.70
41447;DHT22;27185;52.040;4.490;2022-08-02T02:17:25;18.70;80.90
41447;DHT22;27185;52.040;4.490;2022-08-02T02:20:14;18.70;80.90
41447;DHT22;27185;52.040;4.490;2022-08-02T02:23:00;18.60;81.10
41447;DHT22;27185;52.040;4.490;2022-08-02T02:25:46;18.70;81.10
41447;DHT22;27185;52.040;4.490;2022-08-02T02:28:34;18.70;80.90
41447;DHT22;27185;52.040;4.490;2022-08-02T02:31:21;18.60;81.20
41447;DHT22;27185;52.040;4.490;2022-08-02T02:34:11;18.60;81.20
41447;DHT22;27185;52.040;4.490;2022-08-02T02:37:02;18.60;81.60
41447;DHT22;27185;52.040;4.490;2022-08-02T02:39:50;18.50;81.70
41447;DHT22;27185;52.040;4.490;2022-08-02T02:42:37;18.60;81.60
41447;DHT22;27185;52.040;4.490;2022-08-02T02:45:24;18.50;81.50
41447;DHT22;27185;52.040;4.490;2022-08-02T02:48:10;18.50;81.50
41447;DHT22;27185;52.040;4.490;2022-08-02T02:50:58;18.50;81.60
41447;DHT22;27185;52.040;4.490;2022-08-02T02:53:46;18.50;81.60
41447;DHT22;27185;52.040;4.490;2022-08-02T02:56:35;18.50;81.50
41447;DHT22;27185;52.040;4.490;2022-08-02T02:59:21;18.40;81.60
41447;DHT22;27185;52.040;4.490;2022-08-02T03:02:07;18.40;81.60
41447;DHT22;27185;52.040;4.490;2022-08-02T03:04:55;18.40;81.60
41447;DHT22;27185;52.040;4.490;2022-08-02T03:07:41;18.40;81.60
41447;DHT22;27185;52.040;4.490;2022-08-02T03:10:27;18.40;81.70
41447;DHT22;27185;52.040;4.490;2022-08-02T03:13:13;18.40;81.70
41447;DHT22;27185;52.040;4.490;2022-08-02T03:16:00;18.40;81.70
41447;DHT22;27185;52.040;4.490;2022-08-02T03:18:46;18.40;81.80
41447;DHT22;27185;52.040;4.490;2022-08-02T03:21:32;18.40;81.80
41447;DHT22;27185;52.040;4.490;2022-08-02T03:24:17;18.40;82.00
41447;DHT22;27185;52.040;4.490;2022-08-02T03:27:03;18.30;82.00
41447;DHT22;27185;52.040;4.490;2022-08-02T03:29:49;18.30;82.00
41447;DHT22;27185;52.040;4.490;2022-08-02T03:32:35;18.30;82.00
41447;DHT22;27185;52.040;4.490;2022-08-02T03:35:21;18.30;82.10
41447;DHT22;27185;52.040;4.490;2022-08-02T03:38:08;18.30;82.10
41447;DHT22;27185;52.040;4.490;2022-08-02T03:40:55;18.20;82.30
41447;DHT22;27185;52.040;4.490;2022-08-02T03:43:42;18.20;82.30
41447;DHT22;27185;52.040;4.490;2022-08-02T03:46:29;18.20;82.40
41447;DHT22;27185;52.040;4.490;2022-08-02T03:49:16;18.20;82.40
41447;DHT22;27185;52.040;4.490;2022-08-02T03:52:03;18.10;82.60
41447;DHT22;27185;52.040;4.490;2022-08-02T03:54:48;18.10;82.70
41447;DHT22;27185;52.040;4.490;2022-08-02T03:57:37;18.00;82.90
41447;DHT22;27185;52.040;4.490;2022-08-02T04:00:24;18.00;83.20
41447;DHT22;27185;52.040;4.490;2022-08-02T04:03:09;17.90;83.70
41447;DHT22;27185;52.040;4.490;2022-08-02T04:05:55;17.90;83.40
41447;DHT22;27185;52.040;4.490;2022-08-02T04:08:40;17.80;83.40
41447;DHT22;27185;52.040;4.490;2022-08-02T04:11:26;17.80;83.60
41447;DHT22;27185;52.040;4.490;2022-08-02T04:14:17;17.80;83.70
41447;DHT22;27185;52.040;4.490;2022-08-02T04:17:08;17.80;83.80
41447;DHT22;27185;52.040;4.490;2022-08-02T04:20:11;17.70;84.30
41447;DHT22;27185;52.040;4.490;2022-08-02T04:23:06;17.70;84.10
41447;DHT22;27185;52.040;4.490;2022-08-02T04:25:54;17.70;84.30
41447;DHT22;27185;52.040;4.490;2022-08-02T04:28:41;17.70;83.90
41447;DHT22;27185;52.040;4.490;2022-08-02T04:31:28;17.70;84.10
41447;DHT22;27185;52.040;4.490;2022-08-02T04:34:14;17.70;84.00
41447;DHT22;27185;52.040;4.490;2022-08-02T04:37:00;17.70;83.90
41447;DHT22;27185;52.040;4.490;2022-08-02T04:39:45;17.70;83.90
41447;DHT22;27185;52.040;4.490;2022-08-02T04:42:31;17.70;84.10
41447;DHT22;27185;52.040;4.490;2022-08-02T04:45:17;17.70;84.10
41447;DHT22;27185;52.040;4.490;2022-08-02T04:48:03;17.80;84.20
41447;DHT22;27185;52.040;4.490;2022-08-02T04:50:49;17.80;84.10
41447;DHT22;27185;52.040;4.490;2022-08-02T04:53:35;17.80;84.10
41447;DHT22;27185;52.040;4.490;2022-08-02T04:56:20;17.90;84.10
41447;DHT22;27185;52.040;4.490;2022-08-02T04:59:06;17.90;84.20
41447;DHT22;27185;52.040;4.490;2022-08-02T05:01:52;18.00;84.20
41447;DHT22;27185;52.040;4.490;2022-08-02T05:04:38;18.00;84.10
41447;DHT22;27185;52.040;4.490;2022-08-02T05:07:24;18.10;84.20
41447;DHT22;27185;52.040;4.490;2022-08-02T05:10:10;18.10;84.10
41447;DHT22;27185;52.040;4.490;2022-08-02T05:12:55;18.20;84.20
41447;DHT22;27185;52.040;4.490;2022-08-02T05:15:41;18.20;84.20
41447;DHT22;27185;52.040;4.490;2022-08-02T05:18:26;18.30;84.10
41447;DHT22;27185;52.040;4.490;2022-08-02T05:21:12;18.30;84.10
41447;DHT22;27185;52.040;4.490;2022-08-02T05:23:58;18.40;84.20
41447;DHT22;27185;52.040;4.490;2022-08-02T05:26:44;18.40;84.20
41447;DHT22;27185;52.040;4.490;2022-08-02T05:29:29;18.50;84.20
41447;DHT22;27185;52.040;4.490;2022-08-02T05:32:15;18.50;84.20
41447;DHT22;27185;52.040;4.490;2022-08-02T05:35:01;18.60;84.30
41447;DHT22;27185;52.040;4.490;2022-08-02T05:37:50;18.70;84.40
41447;DHT22;27185;52.040;4.490;2022-08-02T05:40:36;18.80;84.70
41447;DHT22;27185;52.040;4.490;2022-08-02T05:43:21;18.80;84.50
41447;DHT22;27185;52.040;4.490;2022-08-02T05:46:07;18.90;84.70
41447;DHT22;27185;52.040;4.490;2022-08-02T05:48:53;18.90;84.90
41447;DHT22;27185;52.040;4.490;2022-08-02T05:51:51;19.00;85.00
41447;DHT22;27185;52.040;4.490;2022-08-02T05:54:53;19.10;85.20
41447;DHT22;27185;52.040;4.490;2022-08-02T06:00:33;19.20;85.60
41447;DHT22;27185;52.040;4.490;2022-08-02T06:03:25;19.30;85.60
41447;DHT22;27185;52.040;4.490;2022-08-02T06:06:15;19.40;86.20
41447;DHT22;27185;52.040;4.490;2022-08-02T06:09:15;19.50;86.20
41447;DHT22;27185;52.040;4.490;2022-08-02T06:12:02;19.60;86.70
41447;DHT22;27185;52.040;4.490;2022-08-02T06:14:49;19.70;86.60
41447;DHT22;27185;52.040;4.490;2022-08-02T06:17:36;19.80;86.70
41447;DHT22;27185;52.040;4.490;2022-08-02T06:20:26;20.00;87.10
41447;DHT22;27185;52.040;4.490;2022-08-02T06:23:12;20.10;88.20
41447;DHT22;27185;52.040;4.490;2022-08-02T06:25:59;20.20;89.40
41447;DHT22;27185;52.040;4.490;2022-08-02T06:28:47;20.40;90.10
41447;DHT22;27185;52.040;4.490;2022-08-02T06:31:34;20.50;90.30
41447;DHT22;27185;52.040;4.490;2022-08-02T06:34:21;20.70;90.60
41447;DHT22;27185;52.040;4.490;2022-08-02T06:37:26;20.90;90.50
41447;DHT22;27185;52.040;4.490;2022-08-02T06:40:30;21.10;90.90
41447;DHT22;27185;52.040;4.490;2022-08-02T06:43:31;21.20;91.40
41447;DHT22;27185;52.040;4.490;2022-08-02T06:46:19;21.30;91.30
41447;DHT22;27185;52.040;4.490;2022-08-02T06:49:05;21.30;91.00
41447;DHT22;27185;52.040;4.490;2022-08-02T06:51:51;21.30;91.00
41447;DHT22;27185;52.040;4.490;2022-08-02T06:54:36;21.30;91.20
41447;DHT22;27185;52.040;4.490;2022-08-02T06:57:23;21.30;91.50
41447;DHT22;27185;52.040;4.490;2022-08-02T07:00:09;21.40;92.00
41447;DHT22;27185;52.040;4.490;2022-08-02T07:02:55;21.40;92.10
41447;DHT22;27185;52.040;4.490;2022-08-02T07:05:41;21.40;92.90
41447;DHT22;27185;52.040;4.490;2022-08-02T07:08:28;21.50;93.20
41447;DHT22;27185;52.040;4.490;2022-08-02T07:11:16;21.50;93.50
41447;DHT22;27185;52.040;4.490;2022-08-02T07:14:03;21.60;93.70
41447;DHT22;27185;52.040;4.490;2022-08-02T07:16:49;21.70;94.10
41447;DHT22;27185;52.040;4.490;2022-08-02T07:19:34;21.80;94.20
41447;DHT22;27185;52.040;4.490;2022-08-02T07:22:20;21.90;94.70
41447;DHT22;27185;52.040;4.490;2022-08-02T07:25:08;22.00;94.90
41447;DHT22;27185;52.040;4.490;2022-08-02T07:27:53;22.10;95.00
41447;DHT22;27185;52.040;4.490;2022-08-02T07:30:39;22.20;95.00
41447;DHT22;27185;52.040;4.490;2022-08-02T07:33:25;22.30;95.00
41447;DHT22;27185;52.040;4.490;2022-08-02T07:36:11;22.50;94.90
41447;DHT22;27185;52.040;4.490;2022-08-02T07:38:57;22.60;94.60
41447;DHT22;27185;52.040;4.490;2022-08-02T07:41:42;22.70;94.60
41447;DHT22;27185;52.040;4.490;2022-08-02T07:44:29;22.80;94.70
41447;DHT22;27185;52.040;4.490;2022-08-02T07:47:19;22.90;94.70
41447;DHT22;27185;52.040;4.490;2022-08-02T07:50:05;23.00;94.80
41447;DHT22;27185;52.040;4.490;2022-08-02T07:52:51;23.10;94.60
41447;DHT22;27185;52.040;4.490;2022-08-02T07:55:36;23.20;94.40
41447;DHT22;27185;52.040;4.490;2022-08-02T07:58:22;23.30;94.00
41447;DHT22;27185;52.040;4.490;2022-08-02T08:01:08;23.50;93.80
41447;DHT22;27185;52.040;4.490;2022-08-02T08:03:54;23.60;93.80
41447;DHT22;27185;52.040;4.490;2022-08-02T08:06:40;23.70;93.10
41447;DHT22;27185;52.040;4.490;2022-08-02T08:09:25;23.80;92.70
41447;DHT22;27185;52.040;4.490;2022-08-02T08:12:12;23.90;92.60
41447;DHT22;27185;52.040;4.490;2022-08-02T08:14:57;23.90;92.40
41447;DHT22;27185;52.040;4.490;2022-08-02T08:17:43;24.00;92.20
41447;DHT22;27185;52.040;4.490;2022-08-02T08:20:28;24.00;92.10
41447;DHT22;27185;52.040;4.490;2022-08-02T08:23:14;24.10;91.90
41447;DHT22;27185;52.040;4.490;2022-08-02T08:26:00;24.10;91.70
41447;DHT22;27185;52.040;4.490;2022-08-02T08:28:45;24.20;91.60
41447;DHT22;27185;52.040;4.490;2022-08-02T08:31:31;24.20;91.60
41447;DHT22;27185;52.040;4.490;2022-08-02T08:34:17;24.30;91.70
41447;DHT22;27185;52.040;4.490;2022-08-02T08:37:02;24.50;91.70
41447;DHT22;27185;52.040;4.490;2022-08-02T08:39:48;24.50;91.40
41447;DHT22;27185;52.040;4.490;2022-08-02T08:42:37;24.70;91.30
41447;DHT22;27185;52.040;4.490;2022-08-02T08:45:23;24.90;91.00
41447;DHT22;27185;52.040;4.490;2022-08-02T08:48:14;25.10;90.60
41447;DHT22;27185;52.040;4.490;2022-08-02T08:51:05;25.30;90.30
41447;DHT22;27185;52.040;4.490;2022-08-02T08:53:52;25.50;89.80
41447;DHT22;27185;52.040;4.490;2022-08-02T08:56:38;25.60;90.00
41447;DHT22;27185;52.040;4.490;2022-08-02T08:59:25;25.80;89.10
41447;DHT22;27185;52.040;4.490;2022-08-02T09:02:11;25.90;88.50
41447;DHT22;27185;52.040;4.490;2022-08-02T09:04:56;26.00;87.40
41447;DHT22;27185;52.040;4.490;2022-08-02T09:07:45;26.10;86.80
41447;DHT22;27185;52.040;4.490;2022-08-02T09:10:44;26.20;86.40
41447;DHT22;27185;52.040;4.490;2022-08-02T09:13:29;26.20;85.20
41447;DHT22;27185;52.040;4.490;2022-08-02T09:16:30;26.30;85.60
41447;DHT22;27185;52.040;4.490;2022-08-02T09:19:21;26.40;84.20
41447;DHT22;27185;52.040;4.490;2022-08-02T09:22:09;26.40;84.60
41447;DHT22;27185;52.040;4.490;2022-08-02T09:24:56;26.50;84.40
41447;DHT22;27185;52.040;4.490;2022-08-02T09:27:46;26.50;84.30
41447;DHT22;27185;52.040;4.490;2022-08-02T09:30:33;26.60;83.20
41447;DHT22;27185;52.040;4.490;2022-08-02T09:33:27;26.60;81.80
41447;DHT22;27185;52.040;4.490;2022-08-02T09:36:13;26.70;81.60
41447;DHT22;27185;52.040;4.490;2022-08-02T09:39:03;26.80;81.90
41447;DHT22;27185;52.040;4.490;2022-08-02T09:41:49;26.80;81.60
41447;DHT22;27185;52.040;4.490;2022-08-02T09:44:34;26.80;80.80
41447;DHT22;27185;52.040;4.490;2022-08-02T09:47:20;26.80;80.60
41447;DHT22;27185;52.040;4.490;2022-08-02T09:50:06;26.80;80.40
41447;DHT22;27185;52.040;4.490;2022-08-02T09:52:54;26.80;80.40
41447;DHT22;27185;52.040;4.490;2022-08-02T09:55:40;26.80;80.70
41447;DHT22;27185;52.040;4.490;2022-08-02T09:58:26;26.80;80.40
41447;DHT22;27185;52.040;4.490;2022-08-02T10:01:12;26.90;80.50
41447;DHT22;27185;52.040;4.490;2022-08-02T10:04:01;27.10;80.40
41447;DHT22;27185;52.040;4.490;2022-08-02T10:06:48;27.30;80.40
41447;DHT22;27185;52.040;4.490;2022-08-02T10:09:34;27.50;79.40
41447;DHT22;27185;52.040;4.490;2022-08-02T10:12:20;27.70;79.40
41447;DHT22;27185;52.040;4.490;2022-08-02T10:15:07;27.80;78.10
41447;DHT22;27185;52.040;4.490;2022-08-02T10:17:53;27.80;77.50
41447;DHT22;27185;52.040;4.490;2022-08-02T10:20:42;28.00;77.80
41447;DHT22;27185;52.040;4.490;2022-08-02T10:23:33;28.10;76.90
41447;DHT22;27185;52.040;4.490;2022-08-02T10:26:21;28.10;77.70
41447;DHT22;27185;52.040;4.490;2022-08-02T10:29:14;28.20;77.40
41447;DHT22;27185;52.040;4.490;2022-08-02T10:32:21;28.20;76.80
41447;DHT22;27185;52.040;4.490;2022-08-02T10:35:11;28.40;76.40
41447;DHT22;27185;52.040;4.490;2022-08-02T10:38:00;28.60;75.40
41447;DHT22;27185;52.040;4.490;2022-08-02T10:40:53;28.70;74.30
41447;DHT22;27185;52.040;4.490;2022-08-02T10:43:41;28.90;73.90
41447;DHT22;27185;52.040;4.490;2022-08-02T10:46:33;29.00;74.10
41447;DHT22;27185;52.040;4.490;2022-08-02T10:49:20;29.00;71.60
41447;DHT22;27185;52.040;4.490;2022-08-02T10:52:06;29.00;72.80
41447;DHT22;27185;52.040;4.490;2022-08-02T10:58:15;29.20;71.60
41447;DHT22;27185;52.040;4.490;2022-08-02T11:04:12;29.60;71.80
41447;DHT22;27185;52.040;4.490;2022-08-02T11:07:17;29.60;71.90
41447;DHT22;27185;52.040;4.490;2022-08-02T11:13:16;29.60;69.50
41447;DHT22;27185;52.040;4.490;2022-08-02T11:16:04;29.60;71.30
41447;DHT22;27185;52.040;4.490;2022-08-02T11:21:35;29.70;70.70
41447;DHT22;27185;52.040;4.490;2022-08-02T11:24:25;29.80;71.10
41447;DHT22;27185;52.040;4.490;2022-08-02T11:27:19;29.80;71.40
41447;DHT22;27185;52.040;4.490;2022-08-02T11:30:12;29.70;70.30
41447;DHT22;27185;52.040;4.490;2022-08-02T11:32:58;29.60;70.80
41447;DHT22;27185;52.040;4.490;2022-08-02T11:35:44;29.50;70.70
41447;DHT22;27185;52.040;4.490;2022-08-02T11:38:30;29.50;71.60
41447;DHT22;27185;52.040;4.490;2022-08-02T11:41:20;29.50;72.10
41447;DHT22;27185;52.040;4.490;2022-08-02T11:44:05;29.70;71.40
41447;DHT22;27185;52.040;4.490;2022-08-02T11:47:00;29.80;71.70
41447;DHT22;27185;52.040;4.490;2022-08-02T11:49:46;29.90;71.60
41447;DHT22;27185;52.040;4.490;2022-08-02T11:52:33;30.00;70.40
41447;DHT22;27185;52.040;4.490;2022-08-02T11:55:26;30.10;69.90
41447;DHT22;27185;52.040;4.490;2022-08-02T11:58:12;30.20;67.40
41447;DHT22;27185;52.040;4.490;2022-08-02T12:00:57;30.20;68.30
41447;DHT22;27185;52.040;4.490;2022-08-02T12:03:43;30.30;66.30
41447;DHT22;27185;52.040;4.490;2022-08-02T12:06:30;30.30;65.40
41447;DHT22;27185;52.040;4.490;2022-08-02T12:09:16;30.30;64.90
41447;DHT22;27185;52.040;4.490;2022-08-02T12:12:03;30.40;64.90
41447;DHT22;27185;52.040;4.490;2022-08-02T12:14:49;30.40;64.30
41447;DHT22;27185;52.040;4.490;2022-08-02T12:17:34;30.30;64.00
41447;DHT22;27185;52.040;4.490;2022-08-02T12:20:39;30.30;64.40
41447;DHT22;27185;52.040;4.490;2022-08-02T12:23:25;30.30;64.50
41447;DHT22;27185;52.040;4.490;2022-08-02T12:26:11;30.40;65.00
41447;DHT22;27185;52.040;4.490;2022-08-02T12:28:59;30.50;65.00
41447;DHT22;27185;52.040;4.490;2022-08-02T12:31:47;30.70;65.00
41447;DHT22;27185;52.040;4.490;2022-08-02T12:34:33;30.80;65.00
41447;DHT22;27185;52.040;4.490;2022-08-02T12:37:24;31.00;64.70
41447;DHT22;27185;52.040;4.490;2022-08-02T12:43:07;31.20;63.60
41447;DHT22;27185;52.040;4.490;2022-08-02T12:45:55;31.20;63.90
41447;DHT22;27185;52.040;4.490;2022-08-02T12:48:41;31.30;64.50
41447;DHT22;27185;52.040;4.490;2022-08-02T12:51:36;31.20;64.90
41447;DHT22;27185;52.040;4.490;2022-08-02T12:54:28;31.30;64.70
41447;DHT22;27185;52.040;4.490;2022-08-02T12:57:15;31.30;65.50
41447;DHT22;27185;52.040;4.490;2022-08-02T13:00:01;31.40;65.90
41447;DHT22;27185;52.040;4.490;2022-08-02T13:02:48;31.40;66.10
41447;DHT22;27185;52.040;4.490;2022-08-02T13:05:35;31.30;66.10
41447;DHT22;27185;52.040;4.490;2022-08-02T13:08:20;31.30;66.40
41447;DHT22;27185;52.040;4.490;2022-08-02T13:11:06;31.30;67.20
41447;DHT22;27185;52.040;4.490;2022-08-02T13:13:52;31.20;67.90
41447;DHT22;27185;52.040;4.490;2022-08-02T13:16:38;31.20;67.70
41447;DHT22;27185;52.040;4.490;2022-08-02T13:19:24;31.30;68.00
41447;DHT22;27185;52.040;4.490;2022-08-02T13:22:10;31.30;68.00
41447;DHT22;27185;52.040;4.490;2022-08-02T13:24:56;31.30;67.80
41447;DHT22;27185;52.040;4.490;2022-08-02T13:27:41;31.30;68.30
41447;DHT22;27185;52.040;4.490;2022-08-02T13:30:27;31.30;68.50
41447;DHT22;27185;52.040;4.490;2022-08-02T13:33:13;31.30;68.80
41447;DHT22;27185;52.040;4.490;2022-08-02T13:35:58;31.30;68.80
41447;DHT22;27185;52.040;4.490;2022-08-02T13:38:44;31.30;69.10
41447;DHT22;27185;52.040;4.490;2022-08-02T13:41:30;31.30;69.20
41447;DHT22;27185;52.040;4.490;2022-08-02T13:44:16;31.20;69.50
41447;DHT22;27185;52.040;4.490;2022-08-02T13:47:02;31.30;69.50
41447;DHT22;27185;52.040;4.490;2022-08-02T13:49:48;31.30;69.60
41447;DHT22;27185;52.040;4.490;2022-08-02T13:52:35;31.30;69.60
41447;DHT22;27185;52.040;4.490;2022-08-02T13:55:20;31.10;69.00
41447;DHT22;27185;52.040;4.490;2022-08-02T13:58:06;31.40;69.70
41447;DHT22;27185;52.040;4.490;2022-08-02T14:00:52;31.40;69.60
41447;DHT22;27185;52.040;4.490;2022-08-02T14:03:37;31.40;69.60
41447;DHT22;27185;52.040;4.490;2022-08-02T14:06:23;31.40;70.00
41447;DHT22;27185;52.040;4.490;2022-08-02T14:09:08;31.40;69.90
41447;DHT22;27185;52.040;4.490;2022-08-02T14:11:54;31.40;70.40
41447;DHT22;27185;52.040;4.490;2022-08-02T14:14:39;31.40;70.70
41447;DHT22;27185;52.040;4.490;2022-08-02T14:17:25;31.40;71.40
41447;DHT22;27185;52.040;4.490;2022-08-02T14:20:11;31.50;71.50
41447;DHT22;27185;52.040;4.490;2022-08-02T14:22:57;31.60;71.70
41447;DHT22;27185;52.040;4.490;2022-08-02T14:25:42;31.70;71.90
41447;DHT22;27185;52.040;4.490;2022-08-02T14:28:28;31.90;72.00
41447;DHT22;27185;52.040;4.490;2022-08-02T14:31:13;31.90;71.50
41447;DHT22;27185;52.040;4.490;2022-08-02T14:33:59;31.90;71.10
41447;DHT22;27185;52.040;4.490;2022-08-02T14:36:44;32.00;71.50
41447;DHT22;27185;52.040;4.490;2022-08-02T14:39:30;32.00;71.10
41447;DHT22;27185;52.040;4.490;2022-08-02T14:42:16;32.00;71.60
41447;DHT22;27185;52.040;4.490;2022-08-02T14:45:01;32.00;71.10
41447;DHT22;27185;52.040;4.490;2022-08-02T14:47:48;32.00;70.70
41447;DHT22;27185;52.040;4.490;2022-08-02T14:50:34;32.00;70.50
41447;DHT22;27185;52.040;4.490;2022-08-02T14:53:20;32.10;70.80
41447;DHT22;27185;52.040;4.490;2022-08-02T14:56:06;32.20;71.00
41447;DHT22;27185;52.040;4.490;2022-08-02T14:58:51;32.20;70.30
41447;DHT22;27185;52.040;4.490;2022-08-02T15:01:37;32.20;70.20
41447;DHT22;27185;52.040;4.490;2022-08-02T15:04:23;32.10;71.00
41447;DHT22;27185;52.040;4.490;2022-08-02T15:07:08;32.00;71.10
41447;DHT22;27185;52.040;4.490;2022-08-02T15:09:54;32.10;71.50
41447;DHT22;27185;52.040;4.490;2022-08-02T15:12:39;32.00;71.60
41447;DHT22;27185;52.040;4.490;2022-08-02T15:15:25;32.00;71.40
41447;DHT22;27185;52.040;4.490;2022-08-02T15:18:11;32.00;71.10
41447;DHT22;27185;52.040;4.490;2022-08-02T15:20:57;31.90;71.50
41447;DHT22;27185;52.040;4.490;2022-08-02T15:23:43;31.90;71.60
41447;DHT22;27185;52.040;4.490;2022-08-02T15:26:29;32.00;71.60
41447;DHT22;27185;52.040;4.490;2022-08-02T15:29:19;32.00;71.60
41447;DHT22;27185;52.040;4.490;2022-08-02T15:32:05;32.00;71.20
41447;DHT22;27185;52.040;4.490;2022-08-02T15:34:51;32.00;71.40
41447;DHT22;27185;52.040;4.490;2022-08-02T15:37:36;32.10;71.70
41447;DHT22;27185;52.040;4.490;2022-08-02T15:40:22;32.10;71.10
41447;DHT22;27185;52.040;4.490;2022-08-02T15:43:11;32.20;70.70
41447;DHT22;27185;52.040;4.490;2022-08-02T15:45:56;32.20;71.10
41447;DHT22;27185;52.040;4.490;2022-08-02T15:48:42;32.30;70.90
41447;DHT22;27185;52.040;4.490;2022-08-02T15:51:27;32.20;70.40
41447;DHT22;27185;52.040;4.490;2022-08-02T15:54:13;32.20;70.90
41447;DHT22;27185;52.040;4.490;2022-08-02T15:56:58;32.20;71.20
41447;DHT22;27185;52.040;4.490;2022-08-02T15:59:44;32.10;71.00
41447;DHT22;27185;52.040;4.490;2022-08-02T16:02:30;32.10;70.60
41447;DHT22;27185;52.040;4.490;2022-08-02T16:05:16;32.00;71.70
41447;DHT22;27185;52.040;4.490;2022-08-02T16:08:02;31.90;71.00
41447;DHT22;27185;52.040;4.490;2022-08-02T16:10:47;32.00;71.10
41447;DHT22;27185;52.040;4.490;2022-08-02T16:13:33;32.00;70.70
41447;DHT22;27185;52.040;4.490;2022-08-02T16:16:35;31.90;70.30
41447;DHT22;27185;52.040;4.490;2022-08-02T16:19:20;32.00;70.30
41447;DHT22;27185;52.040;4.490;2022-08-02T16:22:08;31.90;70.00
41447;DHT22;27185;52.040;4.490;2022-08-02T16:24:54;31.80;69.90
41447;DHT22;27185;52.040;4.490;2022-08-02T16:27:39;31.80;70.30
41447;DHT22;27185;52.040;4.490;2022-08-02T16:30:25;31.80;70.40
41447;DHT22;27185;52.040;4.490;2022-08-02T16:33:10;31.70;70.30
41447;DHT22;27185;52.040;4.490;2022-08-02T16:35:56;31.60;70.20
41447;DHT22;27185;52.040;4.490;2022-08-02T16:38:43;31.60;70.70
41447;DHT22;27185;52.040;4.490;2022-08-02T16:41:29;31.70;70.80
41447;DHT22;27185;52.040;4.490;2022-08-02T16:44:14;31.70;70.70
41447;DHT22;27185;52.040;4.490;2022-08-02T16:47:00;31.70;70.60
41447;DHT22;27185;52.040;4.490;2022-08-02T16:49:45;31.60;70.50
41447;DHT22;27185;52.040;4.490;2022-08-02T16:52:31;31.50;70.20
41447;DHT22;27185;52.040;4.490;2022-08-02T16:55:16;31.50;70.30
41447;DHT22;27185;52.040;4.490;2022-08-02T16:58:03;31.40;70.20
41447;DHT22;27185;52.040;4.490;2022-08-02T17:00:48;31.20;70.40
41447;DHT22;27185;52.040;4.490;2022-08-02T17:03:34;31.10;70.80
41447;DHT22;27185;52.040;4.490;2022-08-02T17:06:20;31.10;71.00
41447;DHT22;27185;52.040;4.490;2022-08-02T17:09:05;30.90;70.80
41447;DHT22;27185;52.040;4.490;2022-08-02T17:11:51;30.60;71.00
41447;DHT22;27185;52.040;4.490;2022-08-02T17:14:37;30.50;71.60
41447;DHT22;27185;52.040;4.490;2022-08-02T17:17:23;30.50;71.80
41447;DHT22;27185;52.040;4.490;2022-08-02T17:20:09;30.40;71.70
41447;DHT22;27185;52.040;4.490;2022-08-02T17:22:55;30.40;72.00
41447;DHT22;27185;52.040;4.490;2022-08-02T17:25:40;30.40;71.90
41447;DHT22;27185;52.040;4.490;2022-08-02T17:28:26;30.50;71.90
41447;DHT22;27185;52.040;4.490;2022-08-02T17:31:11;30.40;71.80
41447;DHT22;27185;52.040;4.490;2022-08-02T17:33:57;30.20;71.70
41447;DHT22;27185;52.040;4.490;2022-08-02T17:36:43;30.20;71.80
41447;DHT22;27185;52.040;4.490;2022-08-02T17:39:29;30.00;72.10
41447;DHT22;27185;52.040;4.490;2022-08-02T17:42:14;29.90;72.30
41447;DHT22;27185;52.040;4.490;2022-08-02T17:45:00;29.90;72.60
41447;DHT22;27185;52.040;4.490;2022-08-02T17:47:46;30.00;72.80
41447;DHT22;27185;52.040;4.490;2022-08-02T17:50:33;30.10;72.80
41447;DHT22;27185;52.040;4.490;2022-08-02T17:53:18;30.10;72.90
41447;DHT22;27185;52.040;4.490;2022-08-02T17:56:04;30.00;72.50
41447;DHT22;27185;52.040;4.490;2022-08-02T17:58:50;29.80;72.60
41447;DHT22;27185;52.040;4.490;2022-08-02T18:01:36;29.40;72.90